createdAt,value
2018-07-28T00:02:20.893Z,21.60
2018-07-28T00:04:49.344Z,21.60
2018-07-28T00:07:17.829Z,21.60
2018-07-28T00:09:48.297Z,21.50
2018-07-28T00:12:16.778Z,21.50
2018-07-28T00:14:45.486Z,21.50
2018-07-28T00:19:44.073Z,21.50
2018-07-28T00:22:12.526Z,21.50
2018-07-28T00:24:40.993Z,21.50
2018-07-28T00:27:09.504Z,21.50
2018-07-28T00:29:37.965Z,21.40
2018-07-28T00:32:06.584Z,21.30
2018-07-28T00:34:35.036Z,21.30
2018-07-28T00:37:03.519Z,21.30
2018-07-28T00:39:31.953Z,21.30
2018-07-28T00:42:00.368Z,21.30
2018-07-28T00:44:28.796Z,21.30
2018-07-28T00:46:58.470Z,21.30
2018-07-28T00:49:26.965Z,21.30
2018-07-28T00:51:55.403Z,21.30
2018-07-28T00:54:23.938Z,21.20
2018-07-28T00:56:52.397Z,21.20
2018-07-28T00:59:21.048Z,21.20
2018-07-28T01:01:50.201Z,21.20
2018-07-28T01:04:18.650Z,21.20
2018-07-28T01:06:47.156Z,21.30
2018-07-28T01:09:15.610Z,21.30
2018-07-28T01:11:44.078Z,21.30
2018-07-28T01:14:12.560Z,21.40
2018-07-28T01:16:41.001Z,21.40
2018-07-28T01:19:09.550Z,21.40
2018-07-28T01:21:38.005Z,21.40
2018-07-28T01:24:06.576Z,21.50
2018-07-28T01:26:35.055Z,21.50
2018-07-28T01:31:37.189Z,21.50
2018-07-28T01:34:05.944Z,21.50
2018-07-28T01:36:34.622Z,21.50
2018-07-28T01:41:31.218Z,21.40
2018-07-28T01:43:59.653Z,21.40
2018-07-28T01:48:56.250Z,21.40
2018-07-28T01:51:24.712Z,21.30
2018-07-28T01:53:53.149Z,21.30
2018-07-28T01:56:21.585Z,21.30
2018-07-28T01:58:50.322Z,21.30
2018-07-28T02:01:18.765Z,21.30
2018-07-28T02:03:47.222Z,21.30
2018-07-28T02:06:15.719Z,21.30
2018-07-28T02:08:44.193Z,21.30
2018-07-28T02:11:12.644Z,21.40
2018-07-28T02:16:09.602Z,21.40
2018-07-28T02:18:38.105Z,21.40
2018-07-28T02:21:06.667Z,21.50
2018-07-28T02:23:35.130Z,21.40
2018-07-28T02:26:03.633Z,21.40
2018-07-28T02:28:32.066Z,21.40
2018-07-28T02:31:00.625Z,21.40
2018-07-28T02:33:29.064Z,21.40
2018-07-28T02:35:57.538Z,21.40
2018-07-28T02:38:26.028Z,21.40
2018-07-28T02:40:54.466Z,21.50
2018-07-28T02:43:22.941Z,21.50
2018-07-28T02:45:51.400Z,21.40
2018-07-28T02:50:48.393Z,21.60
2018-07-28T02:53:16.823Z,21.60
2018-07-28T02:55:45.245Z,21.60
2018-07-28T02:58:13.694Z,21.60
2018-07-28T03:00:42.585Z,21.60
2018-07-28T03:03:11.073Z,21.60
2018-07-28T03:05:39.526Z,21.60
2018-07-28T03:08:08.445Z,21.50
2018-07-28T03:10:36.918Z,21.50
2018-07-28T03:13:05.437Z,21.50
2018-07-28T03:15:34.939Z,21.40
2018-07-28T03:18:05.325Z,21.40
2018-07-28T03:20:33.802Z,21.40
2018-07-28T03:23:02.953Z,21.40
2018-07-28T03:25:31.417Z,21.30
2018-07-28T03:27:59.894Z,21.30
2018-07-28T03:30:28.457Z,21.30
2018-07-28T03:32:56.909Z,21.30
2018-07-28T03:35:25.360Z,21.30
2018-07-28T03:37:53.793Z,21.30
2018-07-28T03:40:22.231Z,21.30
2018-07-28T03:42:50.669Z,21.30
2018-07-28T03:45:19.158Z,21.40
2018-07-28T03:47:47.609Z,21.40
2018-07-28T03:50:16.051Z,21.30
2018-07-28T03:52:44.704Z,21.30
2018-07-28T03:55:13.162Z,21.30
2018-07-28T03:57:41.573Z,21.30
2018-07-28T04:00:11.673Z,21.20
2018-07-28T04:02:40.234Z,21.20
2018-07-28T04:05:10.441Z,21.30
2018-07-28T04:07:39.037Z,21.30
2018-07-28T04:10:08.161Z,21.20
2018-07-28T04:12:36.616Z,21.20
2018-07-28T04:15:07.397Z,21.20
2018-07-28T04:17:40.085Z,21.30
2018-07-28T04:22:36.613Z,21.40
2018-07-28T04:25:05.084Z,21.40
2018-07-28T04:27:33.518Z,21.40
2018-07-28T04:30:01.967Z,21.50
2018-07-28T04:32:30.656Z,21.60
2018-07-28T04:34:59.097Z,21.70
2018-07-28T04:37:27.524Z,21.70
2018-07-28T04:39:55.966Z,22.00
2018-07-28T04:42:24.375Z,22.40
2018-07-28T04:44:52.860Z,22.90
2018-07-28T04:47:21.317Z,23.30
2018-07-28T04:49:49.721Z,24.00
2018-07-28T04:52:18.225Z,24.90
2018-07-28T04:57:14.765Z,26.10
2018-07-28T04:59:43.553Z,26.80
2018-07-28T05:02:12.000Z,27.30
2018-07-28T05:04:40.441Z,28.00
2018-07-28T05:07:09.398Z,28.20
2018-07-28T05:09:37.816Z,28.10
2018-07-28T05:12:06.409Z,28.50
2018-07-28T05:14:34.847Z,28.60
2018-07-28T05:17:03.277Z,28.80
2018-07-28T05:22:00.161Z,28.80
2018-07-28T05:24:28.610Z,28.90
2018-07-28T05:26:57.041Z,29.00
2018-07-28T05:29:25.481Z,29.20
2018-07-28T05:31:54.327Z,28.60
2018-07-28T05:34:23.008Z,27.50
2018-07-28T05:36:51.526Z,26.60
2018-07-28T05:39:19.961Z,26.00
2018-07-28T05:41:48.385Z,26.10
2018-07-28T05:49:13.197Z,27.40
2018-07-28T05:51:41.632Z,28.00
2018-07-28T05:54:10.118Z,28.70
2018-07-28T05:56:38.565Z,29.60
2018-07-28T05:59:07.091Z,30.00
2018-07-28T06:01:35.520Z,30.50
2018-07-28T06:06:32.180Z,31.70
2018-07-28T06:13:56.921Z,32.40
2018-07-28T06:16:25.464Z,32.90
2018-07-28T06:18:53.873Z,33.40
2018-07-28T06:21:22.596Z,33.60
2018-07-28T06:23:51.030Z,33.90
2018-07-28T06:26:19.871Z,34.10
2018-07-28T06:28:48.306Z,34.50
2018-07-28T06:31:17.082Z,34.80
2018-07-28T06:33:45.573Z,35.20
2018-07-28T06:38:42.117Z,33.70
2018-07-28T06:41:10.536Z,33.00
2018-07-28T06:43:38.973Z,32.00
2018-07-28T06:46:07.461Z,30.90
2018-07-28T06:48:36.153Z,30.20
2018-07-28T06:51:04.647Z,29.70
2018-07-28T06:56:01.279Z,28.90
2018-07-28T06:58:29.799Z,28.40
2018-07-28T07:00:58.252Z,27.80
2018-07-28T07:03:27.974Z,27.30
2018-07-28T07:08:24.521Z,26.40
2018-07-28T07:10:52.959Z,26.00
2018-07-28T07:13:21.610Z,25.60
2018-07-28T07:15:50.053Z,25.40
2018-07-28T07:18:18.509Z,25.40
2018-07-28T07:20:46.989Z,25.30
2018-07-28T07:23:15.474Z,25.30
2018-07-28T07:25:43.932Z,25.40
2018-07-28T07:28:12.505Z,25.30
2018-07-28T07:30:40.924Z,25.20
2018-07-28T07:33:09.373Z,25.10
2018-07-28T07:35:37.872Z,25.00
2018-07-28T07:38:06.378Z,25.10
2018-07-28T07:40:34.840Z,25.10
2018-07-28T07:43:03.306Z,25.20
2018-07-28T07:45:31.781Z,25.30
2018-07-28T07:48:00.236Z,25.30
2018-07-28T07:50:28.686Z,25.30
2018-07-28T07:52:57.153Z,25.20
2018-07-28T07:55:25.881Z,25.00
2018-07-28T07:57:54.398Z,24.90
2018-07-28T08:00:23.149Z,24.70
2018-07-28T08:02:52.589Z,24.60
2018-07-28T08:05:21.581Z,24.50
2018-07-28T08:07:51.884Z,24.40
2018-07-28T08:12:50.023Z,23.90
2018-07-28T08:15:18.677Z,23.60
2018-07-28T08:17:47.625Z,23.40
2018-07-28T08:20:16.073Z,23.30
2018-07-28T08:22:44.577Z,23.40
2018-07-28T08:25:13.110Z,23.30
2018-07-28T08:30:10.033Z,23.50
2018-07-28T08:32:38.506Z,23.60
2018-07-28T08:35:07.438Z,23.60
2018-07-28T08:37:35.973Z,23.80
2018-07-28T08:40:04.947Z,24.10
2018-07-28T08:42:33.803Z,24.20
2018-07-28T08:45:02.247Z,24.60
2018-07-28T08:47:30.743Z,24.70
2018-07-28T08:49:59.224Z,24.80
2018-07-28T08:52:27.702Z,24.70
2018-07-28T08:54:56.163Z,24.70
2018-07-28T08:57:24.643Z,24.80
2018-07-28T08:59:53.109Z,24.80
2018-07-28T09:02:21.561Z,24.60
2018-07-28T09:04:50.059Z,24.60
2018-07-28T09:09:46.733Z,24.60
2018-07-28T09:12:15.343Z,24.70
2018-07-28T09:14:43.791Z,24.90
2018-07-28T09:17:12.285Z,25.10
2018-07-28T09:19:40.752Z,25.20
2018-07-28T09:22:09.221Z,25.80
2018-07-28T09:24:37.717Z,26.00
2018-07-28T09:27:06.165Z,26.40
2018-07-28T09:29:34.621Z,26.80
2018-07-28T09:32:03.562Z,27.10
2018-07-28T09:34:32.146Z,27.20
2018-07-28T09:37:00.662Z,27.00
2018-07-28T09:39:30.367Z,27.10
2018-07-28T09:41:58.824Z,26.90
2018-07-28T09:46:55.399Z,26.50
2018-07-28T09:49:24.267Z,26.50
2018-07-28T09:54:21.457Z,26.60
2018-07-28T09:56:49.904Z,26.50
2018-07-28T09:59:18.348Z,26.80
2018-07-28T10:01:46.800Z,27.10
2018-07-28T10:04:15.238Z,27.50
2018-07-28T10:06:43.700Z,27.80
2018-07-28T10:09:16.400Z,28.10
2018-07-28T10:11:45.140Z,28.10
2018-07-28T10:14:13.557Z,28.10
2018-07-28T10:16:43.769Z,27.90
2018-07-28T10:19:14.297Z,27.80
2018-07-28T10:21:42.741Z,28.00
2018-07-28T10:24:11.954Z,28.20
2018-07-28T10:26:40.485Z,28.20
2018-07-28T10:29:08.995Z,28.20
2018-07-28T10:31:37.458Z,28.20
2018-07-28T10:34:07.008Z,28.20
2018-07-28T10:36:35.444Z,28.30
2018-07-28T10:39:07.038Z,28.40
2018-07-28T10:41:35.466Z,28.30
2018-07-28T10:44:03.958Z,28.40
2018-07-28T10:46:32.383Z,28.30
2018-07-28T10:49:00.946Z,28.20
2018-07-28T10:51:30.194Z,28.30
2018-07-28T10:53:58.682Z,28.40
2018-07-28T10:56:27.185Z,28.60
2018-07-28T10:58:55.642Z,28.70
2018-07-28T11:01:24.168Z,28.70
2018-07-28T11:03:52.662Z,28.90
2018-07-28T11:11:17.462Z,28.70
2018-07-28T11:13:45.952Z,28.50
2018-07-28T11:16:14.413Z,28.30
2018-07-28T11:18:42.923Z,28.40
2018-07-28T11:21:11.403Z,28.40
2018-07-28T11:23:58.263Z,28.30
2018-07-28T11:26:26.804Z,28.60
2018-07-28T11:28:55.402Z,28.60
2018-07-28T11:34:08.781Z,28.80
2018-07-28T11:36:48.484Z,29.00
2018-07-28T11:39:28.201Z,29.40
2018-07-28T11:42:07.677Z,29.70
2018-07-28T11:44:47.281Z,29.70
2018-07-28T11:47:15.937Z,29.80
2018-07-28T11:49:44.385Z,30.20
2018-07-28T11:52:12.941Z,30.30
2018-07-28T11:54:41.358Z,30.20
2018-07-28T11:59:37.975Z,30.20
2018-07-28T12:02:06.929Z,30.10
2018-07-28T12:04:35.581Z,30.10
2018-07-28T12:07:04.057Z,30.20
2018-07-28T12:09:32.498Z,30.10
2018-07-28T12:12:00.917Z,30.00
2018-07-28T12:14:29.455Z,30.00
2018-07-28T12:16:57.992Z,30.00
2018-07-28T12:19:26.505Z,30.10
2018-07-28T12:21:54.930Z,29.90
2018-07-28T12:24:23.455Z,30.00
2018-07-28T12:26:51.909Z,30.00
2018-07-28T12:29:20.377Z,29.90
2018-07-28T12:31:48.830Z,29.80
2018-07-28T12:34:17.442Z,29.60
2018-07-28T12:36:45.895Z,29.50
2018-07-28T12:39:14.345Z,29.30
2018-07-28T12:44:10.914Z,28.60
2018-07-28T12:46:39.389Z,28.70
2018-07-28T12:49:07.828Z,28.90
2018-07-28T12:51:36.312Z,29.40
2018-07-28T12:54:04.761Z,29.90
2018-07-28T12:56:33.204Z,30.40
2018-07-28T12:59:01.635Z,30.50
2018-07-28T13:01:30.036Z,30.60
2018-07-28T13:03:58.510Z,30.60
2018-07-28T13:06:26.919Z,30.60
2018-07-28T13:08:55.923Z,30.70
2018-07-28T13:11:24.509Z,30.70
2018-07-28T13:16:21.178Z,29.80
2018-07-28T13:18:49.698Z,29.70
2018-07-28T13:21:18.145Z,29.70
2018-07-28T13:23:46.724Z,30.00
2018-07-28T13:26:15.132Z,30.10
2018-07-28T13:28:43.625Z,30.40
2018-07-28T13:31:12.106Z,30.50
2018-07-28T13:33:40.543Z,30.50
2018-07-28T13:38:37.184Z,30.40
2018-07-28T13:41:05.730Z,30.50
2018-07-28T13:43:34.180Z,30.60
2018-07-28T13:46:02.585Z,30.60
2018-07-28T13:48:32.276Z,30.70
2018-07-28T13:51:01.114Z,30.40
2018-07-28T13:53:30.463Z,30.30
2018-07-28T13:56:00.029Z,30.50
2018-07-28T13:58:35.291Z,30.50
2018-07-28T14:01:03.933Z,30.60
2018-07-28T14:03:32.691Z,30.50
2018-07-28T14:06:02.011Z,30.20
2018-07-28T14:08:31.114Z,29.80
2018-07-28T14:10:59.604Z,29.60
2018-07-28T14:13:28.063Z,29.10
2018-07-28T14:15:56.514Z,28.90
2018-07-28T14:18:25.067Z,28.70
2018-07-28T14:20:53.555Z,28.40
2018-07-28T14:23:22.052Z,28.30
2018-07-28T14:25:50.650Z,28.20
2018-07-28T14:28:19.338Z,28.20
2018-07-28T14:30:47.849Z,28.10
2018-07-28T14:33:16.320Z,28.00
2018-07-28T14:35:44.849Z,28.10
2018-07-28T14:38:13.277Z,28.00
2018-07-28T14:40:41.756Z,27.80
2018-07-28T14:43:10.198Z,27.80
2018-07-28T14:45:38.650Z,27.80
2018-07-28T14:48:07.100Z,27.80
2018-07-28T14:50:35.556Z,27.90
2018-07-28T14:53:03.998Z,28.00
2018-07-28T14:55:32.424Z,28.00
2018-07-28T15:00:28.986Z,27.80
2018-07-28T15:05:27.849Z,27.90
2018-07-28T15:07:56.735Z,27.90
2018-07-28T15:10:25.176Z,27.70
2018-07-28T15:12:53.609Z,27.60
2018-07-28T15:15:22.337Z,27.50
2018-07-28T15:17:50.754Z,27.50
2018-07-28T15:20:19.192Z,27.60
2018-07-28T15:25:15.797Z,27.80
2018-07-28T15:27:44.502Z,27.60
2018-07-28T15:30:12.929Z,27.60
2018-07-28T15:32:41.402Z,27.40
2018-07-28T15:37:37.981Z,27.30
2018-07-28T15:40:06.439Z,27.20
2018-07-28T15:42:34.913Z,27.10
2018-07-28T15:45:03.429Z,27.00
2018-07-28T15:47:31.903Z,26.90
2018-07-28T15:50:00.329Z,26.80
2018-07-28T15:52:28.841Z,26.70
2018-07-28T15:55:02.993Z,26.70
2018-07-28T15:57:31.413Z,26.70
2018-07-28T16:00:05.598Z,26.50
2018-07-28T16:02:34.019Z,26.30
2018-07-28T16:05:02.462Z,26.00
2018-07-28T16:07:30.917Z,25.90
2018-07-28T16:12:27.622Z,25.70
2018-07-28T16:14:56.053Z,25.50
2018-07-28T16:19:52.669Z,25.40
2018-07-28T16:22:21.605Z,25.30
2018-07-28T16:24:50.013Z,25.20
2018-07-28T16:27:18.466Z,25.30
2018-07-28T16:29:46.900Z,25.20
2018-07-28T16:32:15.336Z,25.20
2018-07-28T16:34:43.765Z,25.10
2018-07-28T16:37:12.221Z,25.00
2018-07-28T16:39:40.725Z,25.00
2018-07-28T16:42:09.201Z,24.80
2018-07-28T16:44:37.653Z,24.80
2018-07-28T16:47:06.225Z,24.70
2018-07-28T16:49:34.669Z,24.70
2018-07-28T16:52:03.164Z,24.70
2018-07-28T16:54:31.630Z,24.60
2018-07-28T16:57:00.041Z,24.50
2018-07-28T17:01:56.615Z,24.40
2018-07-28T17:04:25.582Z,24.40
2018-07-28T17:06:54.081Z,24.40
2018-07-28T17:09:22.515Z,24.40
2018-07-28T17:11:51.004Z,24.50
2018-07-28T17:14:19.426Z,24.40
2018-07-28T17:16:47.880Z,24.40
2018-07-28T17:19:16.342Z,24.50
2018-07-28T17:21:44.822Z,24.60
2018-07-28T17:24:13.263Z,24.60
2018-07-28T17:26:41.708Z,24.70
2018-07-28T17:29:10.133Z,24.60
2018-07-28T17:31:38.592Z,24.60
2018-07-28T17:34:07.068Z,24.60
2018-07-28T17:36:35.533Z,24.50
2018-07-28T17:41:32.235Z,24.40
2018-07-28T17:44:00.656Z,24.40
2018-07-28T17:46:29.082Z,24.30
2018-07-28T17:48:57.580Z,24.20
2018-07-28T17:51:26.038Z,24.10
2018-07-28T17:53:55.026Z,24.00
2018-07-28T17:56:23.493Z,24.00
2018-07-28T17:58:54.039Z,23.90
2018-07-28T18:01:22.511Z,23.80
2018-07-28T18:06:19.337Z,23.70
2018-07-28T18:08:47.773Z,23.70
2018-07-28T18:11:16.241Z,23.70
2018-07-28T18:16:13.146Z,23.50
2018-07-28T18:18:41.649Z,23.40
2018-07-28T18:21:10.341Z,23.40
2018-07-28T18:23:38.822Z,23.30
2018-07-28T18:26:07.245Z,23.30
2018-07-28T18:28:35.675Z,23.30
2018-07-28T18:31:04.094Z,23.30
2018-07-28T18:36:00.991Z,23.20
2018-07-28T18:38:29.405Z,23.20
2018-07-28T18:40:57.845Z,23.30
2018-07-28T18:43:26.264Z,23.20
2018-07-28T18:45:54.942Z,23.20
2018-07-28T18:48:23.596Z,23.10
2018-07-28T18:50:52.030Z,23.00
2018-07-28T18:53:20.497Z,23.00
2018-07-28T18:55:48.926Z,23.00
2018-07-28T18:58:17.393Z,23.00
2018-07-28T19:00:45.850Z,23.00
2018-07-28T19:03:14.301Z,23.00
2018-07-28T19:05:42.733Z,22.90
2018-07-28T19:08:11.394Z,22.90
2018-07-28T19:10:39.875Z,22.90
2018-07-28T19:13:13.717Z,22.80
2018-07-28T19:15:42.141Z,22.90
2018-07-28T19:18:15.933Z,22.80
2018-07-28T19:20:44.390Z,22.80
2018-07-28T19:23:18.065Z,22.80
2018-07-28T19:25:46.520Z,22.70
2018-07-28T19:28:20.644Z,22.60
2018-07-28T19:31:03.856Z,22.60
2018-07-28T19:33:35.008Z,22.60
2018-07-28T19:36:08.666Z,22.60
2018-07-28T19:41:05.485Z,22.50
2018-07-28T19:43:33.972Z,22.50
2018-07-28T19:46:02.414Z,22.50
2018-07-28T19:48:33.902Z,22.50
2018-07-28T19:51:02.362Z,22.40
2018-07-28T19:53:34.118Z,22.50
2018-07-28T19:56:15.542Z,22.40
2018-07-28T19:58:44.020Z,22.40
2018-07-28T20:01:12.797Z,22.30
2018-07-28T20:03:41.269Z,22.20
2018-07-28T20:06:09.713Z,22.20
2018-07-28T20:08:38.163Z,22.10
2018-07-28T20:11:06.734Z,22.00
2018-07-28T20:13:38.495Z,22.00
2018-07-28T20:16:08.063Z,21.90
2018-07-28T20:18:36.505Z,21.90
2018-07-28T20:21:04.977Z,21.90
2018-07-28T20:23:33.629Z,21.90
2018-07-28T20:26:02.104Z,21.80
2018-07-28T20:28:30.603Z,21.80
2018-07-28T20:33:27.285Z,21.70
2018-07-28T20:35:55.750Z,21.70
2018-07-28T20:38:24.715Z,21.60
2018-07-28T20:40:58.166Z,21.70
2018-07-28T20:43:26.830Z,21.70
2018-07-28T20:45:55.329Z,21.70
2018-07-28T20:48:23.765Z,21.60
2018-07-28T20:50:52.176Z,21.60
2018-07-28T20:53:20.646Z,21.60
2018-07-28T20:55:51.065Z,21.60
2018-07-28T20:58:22.953Z,21.50
2018-07-28T21:00:52.827Z,21.50
2018-07-28T21:03:23.239Z,21.50
2018-07-28T21:05:57.657Z,21.40
2018-07-28T21:08:26.129Z,21.40
2018-07-28T21:10:55.406Z,21.40
2018-07-28T21:13:23.869Z,21.30
2018-07-28T21:15:52.354Z,21.30
2018-07-28T21:18:24.527Z,21.30
2018-07-28T21:20:54.786Z,21.20
2018-07-28T21:25:51.349Z,21.10
2018-07-28T21:33:16.281Z,21.00
2018-07-28T21:40:50.514Z,21.00
2018-07-28T21:45:47.118Z,20.90
2018-07-28T21:48:15.644Z,20.90
2018-07-28T21:50:44.093Z,20.90
2018-07-28T21:53:13.506Z,20.90
2018-07-28T21:55:46.881Z,21.00
2018-07-28T21:58:15.337Z,21.00
2018-07-28T22:00:49.890Z,20.90
2018-07-28T22:03:23.549Z,20.90
2018-07-28T22:08:20.164Z,20.80
2018-07-28T22:10:50.986Z,20.80
2018-07-28T22:13:19.587Z,20.80
2018-07-28T22:15:48.229Z,20.70
2018-07-28T22:18:16.816Z,20.80
2018-07-28T22:20:47.465Z,20.70
2018-07-28T22:23:15.958Z,20.70
2018-07-28T22:25:44.446Z,20.60
2018-07-28T22:28:12.957Z,20.70
2018-07-28T22:30:41.409Z,20.70
2018-07-28T22:33:09.899Z,20.60
2018-07-28T22:35:38.393Z,20.60
2018-07-28T22:38:08.877Z,20.60
2018-07-28T22:40:37.368Z,20.60
2018-07-28T22:43:05.848Z,20.60
2018-07-28T22:45:34.345Z,20.60
2018-07-28T22:48:03.023Z,20.60
2018-07-28T22:50:31.500Z,20.50
2018-07-28T22:52:59.997Z,20.60
2018-07-28T22:55:28.452Z,20.50
2018-07-28T23:00:25.030Z,20.50
2018-07-28T23:02:53.524Z,20.50
2018-07-28T23:05:21.981Z,20.50
2018-07-28T23:07:50.418Z,20.50
2018-07-28T23:10:18.885Z,20.50
2018-07-28T23:12:47.314Z,20.50
2018-07-28T23:15:15.806Z,20.40
2018-07-28T23:17:44.459Z,20.50
2018-07-28T23:20:12.899Z,20.40
2018-07-28T23:22:41.319Z,20.40
2018-07-28T23:25:09.774Z,20.40
2018-07-28T23:27:38.214Z,20.40
2018-07-28T23:32:35.907Z,20.40
2018-07-28T23:35:04.395Z,20.50
2018-07-28T23:37:32.845Z,20.40
2018-07-28T23:42:29.453Z,20.40
2018-07-28T23:44:57.888Z,20.40
2018-07-28T23:47:26.349Z,20.30
2018-07-28T23:49:54.753Z,20.30
2018-07-28T23:52:23.449Z,20.30
2018-07-28T23:54:51.885Z,20.30
2018-07-28T23:57:20.285Z,20.30
